Terminal Aerodrome Forecast
Issued by NWS Charleston, WV

Current Version | Previous Version | Graphics & Text | Print | Product List | Glossary On
Versions: 1 2 3 4 5 6 7 8 9 10 11 12 13 14 15 16 17 18 19 20 21 22 23 24
000
FTUS41 KRLX 311155
TAFCRW
TAF
KCRW 311155Z 3112/0112 00000KT 1SM BR BKN001
     FM311230 00000KT 4SM BR SCT001
     FM311300 00000KT P6SM SKC
     FM311500 28006KT P6SM SCT250
     FM010000 VRB03KT P6SM SCT250
     FM010600 VRB03KT 6SM BR SCT250
     FM011000 VRB03KT 5SM BR SCT001=

USA.gov is the U.S. government's official web portal to all federal, state and local government web resources and services.